Time,TemperatureF,DewpointF,PressureIn,WindDirection,WindDirectionDegrees,WindSpeedMPH,WindSpeedGustMPH,Humidity,HourlyPrecipIn,Conditions,Clouds,dailyrainin,SoftwareType,DateUTC
2013-07-19 00:43:00,72.0,54.0,-100.00,North,350,7.0,13.0,53,-99.99,,,-99.99,,2013-07-19 05:43:00,
2013-07-19 00:53:00,72.0,54.0,-100.00,North,350,7.0,13.0,53,-99.99,,,-99.99,,2013-07-19 05:53:00,
2013-07-19 01:01:00,72.0,54.0,-100.00,North,350,7.0,13.0,53,-99.99,,,-99.99,,2013-07-19 06:01:00,
2013-07-19 01:43:00,68.0,60.0,-100.00,NW,325,5.0,7.0,75,-99.99,,,-99.99,,2013-07-19 06:43:00,
2013-07-19 01:53:00,68.0,60.0,-100.00,NW,325,5.0,7.0,75,-99.99,,,-99.99,,2013-07-19 06:53:00,
2013-07-19 02:01:00,68.0,60.0,-100.00,NW,325,5.0,7.0,75,-99.99,,,-99.99,,2013-07-19 07:01:00,
2013-07-19 02:43:00,65.0,60.0,-100.00,NW,315,2.0,4.0,84,-99.99,,,-99.99,,2013-07-19 07:43:00,
2013-07-19 02:53:00,65.0,60.0,-100.00,NW,315,2.0,4.0,84,-99.99,,,-99.99,,2013-07-19 07:53:00,
2013-07-19 03:01:00,65.0,60.0,-100.00,NW,315,2.0,4.0,84,-99.99,,,-99.99,,2013-07-19 08:01:00,
2013-07-19 03:02:00,62.0,59.0,-100.00,NNE,25,3.0,4.0,91,-99.99,,,-99.99,,2013-07-19 08:02:00,
2013-07-19 03:43:00,62.0,59.0,-100.00,NNE,25,3.0,4.0,91,-99.99,,,-99.99,,2013-07-19 08:43:00,
2013-07-19 03:52:00,62.0,59.0,-100.00,NNE,25,3.0,4.0,91,-99.99,,,-99.99,,2013-07-19 08:52:00,
2013-07-19 04:32:00,60.0,59.0,-100.00,North,350,5.0,6.0,96,-99.99,,,-99.99,,2013-07-19 09:32:00,
2013-07-19 04:43:00,60.0,59.0,-100.00,North,350,5.0,6.0,96,-99.99,,,-99.99,,2013-07-19 09:43:00,
2013-07-19 04:52:00,60.0,59.0,-100.00,North,350,5.0,6.0,96,-99.99,,,-99.99,,2013-07-19 09:52:00,
2013-07-19 05:01:00,60.0,59.0,-100.00,North,350,5.0,6.0,96,-99.99,,,-99.99,,2013-07-19 10:01:00,
2013-07-19 05:02:00,59.0,59.0,-100.00,North,0,4.0,5.0,99,-99.99,,,-99.99,,2013-07-19 10:02:00,
2013-07-19 05:33:00,59.0,59.0,-100.00,North,0,4.0,5.0,99,-99.99,,,-99.99,,2013-07-19 10:33:00,
2013-07-19 05:43:00,59.0,59.0,-100.00,North,0,4.0,5.0,99,-99.99,,,-99.99,,2013-07-19 10:43:00,
2013-07-19 05:52:00,59.0,59.0,-100.00,North,0,4.0,5.0,99,-99.99,,,-99.99,,2013-07-19 10:52:00,
2013-07-19 06:43:00,57.0,57.0,-100.00,ENE,60,0.0,0.0,99,-99.99,,,-99.99,,2013-07-19 11:43:00,
2013-07-19 06:52:00,57.0,57.0,-100.00,ENE,60,0.0,0.0,99,-99.99,,,-99.99,,2013-07-19 11:52:00,
2013-07-19 07:01:00,57.0,57.0,-100.00,ENE,60,0.0,0.0,99,-99.99,,,-99.99,,2013-07-19 12:01:00,
2013-07-19 07:02:00,59.0,59.0,-100.00,North,0,1.0,1.0,99,-99.99,,,-99.99,,2013-07-19 12:02:00,
2013-07-19 07:44:00,59.0,59.0,-100.00,North,0,1.0,1.0,99,-99.99,,,-99.99,,2013-07-19 12:44:00,
2013-07-19 07:52:00,59.0,59.0,-100.00,North,0,1.0,1.0,99,-99.99,,,-99.99,,2013-07-19 12:52:00,
2013-07-19 08:02:00,64.0,63.0,-100.00,North,0,2.0,3.0,99,-99.99,,,-99.99,,2013-07-19 13:02:00,
2013-07-19 08:43:00,64.0,63.0,-100.00,North,0,2.0,3.0,99,-99.99,,,-99.99,,2013-07-19 13:43:00,
2013-07-19 08:53:00,64.0,63.0,-100.00,North,0,2.0,3.0,99,-99.99,,,-99.99,,2013-07-19 13:53:00,
2013-07-19 09:02:00,70.0,64.0,-100.00,NW,315,4.0,5.0,81,-99.99,,,-99.99,,2013-07-19 14:02:00,
2013-07-19 09:43:00,70.0,64.0,-100.00,NW,315,4.0,5.0,81,-99.99,,,-99.99,,2013-07-19 14:43:00,
2013-07-19 09:53:00,70.0,64.0,-100.00,NW,315,4.0,5.0,81,-99.99,,,-99.99,,2013-07-19 14:53:00,
2013-07-19 11:02:00,77.0,59.0,-100.00,WNW,285,7.0,9.0,53,-99.99,,,-99.99,,2013-07-19 16:02:00,
2013-07-19 11:43:00,77.0,59.0,-100.00,WNW,285,7.0,9.0,53,-99.99,,,-99.99,,2013-07-19 16:43:00,
2013-07-19 11:53:00,77.0,59.0,-100.00,WNW,285,7.0,9.0,53,-99.99,,,-99.99,,2013-07-19 16:53:00,
2013-07-19 12:32:00,80.0,58.0,-100.00,North,0,6.0,11.0,47,-99.99,,,-99.99,,2013-07-19 17:32:00,
2013-07-19 12:43:00,80.0,58.0,-100.00,North,0,6.0,11.0,47,-99.99,,,-99.99,,2013-07-19 17:43:00,
2013-07-19 12:52:00,80.0,58.0,-100.00,North,0,6.0,11.0,47,-99.99,,,-99.99,,2013-07-19 17:52:00,
2013-07-19 13:01:00,80.0,58.0,-100.00,North,0,6.0,11.0,47,-99.99,,,-99.99,,2013-07-19 18:01:00,
2013-07-19 13:42:00,80.0,57.0,-100.00,WNW,300,13.0,15.0,45,-99.99,,,-99.99,,2013-07-19 18:42:00,
2013-07-19 13:52:00,80.0,57.0,-100.00,WNW,300,13.0,15.0,45,-99.99,,,-99.99,,2013-07-19 18:52:00,
2013-07-19 14:01:00,80.0,57.0,-100.00,WNW,300,13.0,15.0,45,-99.99,,,-99.99,,2013-07-19 19:01:00,
2013-07-19 14:43:00,83.0,58.0,-100.00,West,270,8.0,10.0,42,-99.99,,,-99.99,,2013-07-19 19:43:00,
2013-07-19 14:52:00,83.0,58.0,-100.00,West,270,8.0,10.0,42,-99.99,,,-99.99,,2013-07-19 19:52:00,
2013-07-19 15:01:00,83.0,58.0,-100.00,West,270,8.0,10.0,42,-99.99,,,-99.99,,2013-07-19 20:01:00,
2013-07-19 15:43:00,84.0,57.0,-100.00,NW,310,9.0,12.0,41,-99.99,,,-99.99,,2013-07-19 20:43:00,
2013-07-19 15:52:00,84.0,57.0,-100.00,NW,310,9.0,12.0,41,-99.99,,,-99.99,,2013-07-19 20:52:00,
2013-07-19 16:01:00,84.0,57.0,-100.00,NW,310,9.0,12.0,41,-99.99,,,-99.99,,2013-07-19 21:01:00,
2013-07-19 16:43:00,84.0,57.0,-100.00,WNW,300,11.0,13.0,40,-99.99,,,-99.99,,2013-07-19 21:43:00,
2013-07-19 16:52:00,84.0,57.0,-100.00,WNW,300,11.0,13.0,40,-99.99,,,-99.99,,2013-07-19 21:52:00,
2013-07-19 17:01:00,84.0,57.0,-100.00,WNW,300,11.0,13.0,40,-99.99,,,-99.99,,2013-07-19 22:01:00,
2013-07-19 17:32:00,85.0,57.0,-100.00,WNW,300,11.0,14.0,39,-99.99,,,-99.99,,2013-07-19 22:32:00,
2013-07-19 17:43:00,85.0,57.0,-100.00,WNW,300,11.0,14.0,39,-99.99,,,-99.99,,2013-07-19 22:43:00,
2013-07-19 17:52:00,85.0,57.0,-100.00,WNW,300,11.0,14.0,39,-99.99,,,-99.99,,2013-07-19 22:52:00,
2013-07-19 18:01:00,85.0,57.0,-100.00,WNW,300,11.0,14.0,39,-99.99,,,-99.99,,2013-07-19 23:01:00,
2013-07-19 18:43:00,86.0,58.0,-100.00,WNW,290,9.0,14.0,38,-99.99,,,-99.99,,2013-07-19 23:43:00,
2013-07-19 18:52:00,86.0,58.0,-100.00,WNW,290,9.0,14.0,38,-99.99,,,-99.99,,2013-07-19 23:52:00,
2013-07-19 19:01:00,86.0,58.0,-100.00,WNW,290,9.0,14.0,38,-99.99,,,-99.99,,2013-07-20 00:01:00,
2013-07-19 19:43:00,86.0,58.0,-100.00,West,275,5.0,8.0,39,-99.99,,,-99.99,,2013-07-20 00:43:00,
2013-07-19 19:52:00,86.0,58.0,-100.00,West,275,5.0,8.0,39,-99.99,,,-99.99,,2013-07-20 00:52:00,
2013-07-19 20:01:00,86.0,58.0,-100.00,West,275,5.0,8.0,39,-99.99,,,-99.99,,2013-07-20 01:01:00,
2013-07-19 20:02:00,85.0,58.0,-100.00,NW,320,4.0,6.0,40,-99.99,,,-99.99,,2013-07-20 01:02:00,
2013-07-19 20:52:00,85.0,58.0,-100.00,NW,320,4.0,6.0,40,-99.99,,,-99.99,,2013-07-20 01:52:00,
2013-07-19 22:02:00,69.0,63.0,-100.00,ENE,65,11.0,19.0,83,-99.99,,,-99.99,,2013-07-20 03:02:00,
2013-07-19 22:44:00,69.0,63.0,-100.00,ENE,65,11.0,19.0,83,-99.99,,,-99.99,,2013-07-20 03:44:00,
2013-07-19 22:53:00,69.0,63.0,-100.00,ENE,65,11.0,19.0,83,-99.99,,,-99.99,,2013-07-20 03:53:00,